Time;durP1;ratioP1;P1;durP2;ratioP2;P2;SDS_P1;SDS_P2;PMS_P1;PMS_P2;Temp;Humidity;BMP_temperature;BMP_pressure;BME280_temperature;BME280_humidity;BME280_pressure;Samples;Min_cycle;Max_cycle;Signal;HPM_P1;HPM_P2
2021/04/16 00:01:14;;;;;;;5.57;3.13;;;;;;;3.90;57.03;102540.41;5010855;28;20480;-66
2021/04/16 00:03:40;;;;;;;6.68;3.55;;;;;;;3.89;57.25;102536.06;5018141;28;20053;-65
2021/04/16 00:06:06;;;;;;;7.25;3.38;;;;;;;3.88;56.99;102536.88;5020822;28;20503;-66
2021/04/16 00:08:33;;;;;;;8.52;3.35;;;;;;;3.83;57.38;102541.00;5003228;28;20420;-66
2021/04/16 00:11:05;;;;;;;6.32;3.50;;;;;;;3.86;57.54;102539.41;5014054;28;20049;-66
2021/04/16 00:13:31;;;;;;;8.77;3.38;;;;;;;3.74;57.38;102542.38;5019702;28;20129;-66
2021/04/16 00:15:58;;;;;;;10.65;3.53;;;;;;;3.69;58.18;102537.91;5019883;28;20127;-66
2021/04/16 00:18:28;;;;;;;8.10;3.40;;;;;;;3.68;58.23;102531.84;5003876;28;20523;-66
2021/04/16 00:20:55;;;;;;;6.47;3.25;;;;;;;3.64;58.27;102530.00;5014837;28;20049;-66
2021/04/16 00:23:21;;;;;;;5.75;3.00;;;;;;;3.67;58.92;102531.81;4999435;28;20097;-65
2021/04/16 00:25:47;;;;;;;7.72;3.45;;;;;;;3.68;58.24;102529.28;5001822;28;20085;-67
2021/04/16 00:28:35;;;;;;;6.68;3.50;;;;;;;3.79;57.62;102523.66;5004272;28;20061;-65
2021/04/16 00:31:04;;;;;;;6.32;3.53;;;;;;;3.73;58.16;102520.06;5003648;28;20050;-66
2021/04/16 00:36:53;;;;;;;5.88;3.33;;;;;;;3.80;57.56;102515.13;5000857;28;20041;-66
2021/04/16 00:39:22;;;;;;;5.97;2.80;;;;;;;3.88;57.79;102518.84;5022388;28;20052;-66
2021/04/16 00:41:49;;;;;;;6.40;3.53;;;;;;;3.79;58.17;102516.84;5031203;28;20446;-66
2021/04/16 00:47:38;;;;;;;6.55;3.30;;;;;;;3.76;57.81;102510.66;5005730;28;20072;-66
2021/04/16 00:50:10;;;;;;;6.53;3.10;;;;;;;3.73;58.29;102501.13;5025911;28;20127;-66
2021/04/16 00:52:36;;;;;;;8.55;3.25;;;;;;;3.73;58.12;102507.19;5026242;28;20058;-66
2021/04/16 00:55:05;;;;;;;8.55;3.65;;;;;;;3.74;57.89;102501.19;5002343;28;20400;-66
2021/04/16 00:57:31;;;;;;;11.35;4.07;;;;;;;3.66;58.82;102500.03;5026164;28;20053;-67
2021/04/16 00:59:58;;;;;;;9.45;3.95;;;;;;;3.65;58.58;102495.69;5026255;28;20084;-66
2021/04/16 01:02:25;;;;;;;11.00;3.88;;;;;;;3.59;59.08;102500.63;5007102;28;20054;-66
2021/04/16 01:04:52;;;;;;;6.80;3.30;;;;;;;3.63;59.80;102494.78;5013111;28;20046;-67
2021/04/16 01:07:19;;;;;;;8.73;3.47;;;;;;;3.74;59.21;102501.19;5012548;28;20455;-66
2021/04/16 01:09:46;;;;;;;7.22;3.05;;;;;;;3.71;59.41;102492.47;5014446;28;20058;-66
2021/04/16 01:12:14;;;;;;;7.32;3.20;;;;;;;3.69;59.11;102487.28;5012439;28;20061;-66
2021/04/16 01:14:44;;;;;;;6.80;2.88;;;;;;;3.58;59.55;102489.47;5011056;28;20074;-67
2021/04/16 01:17:13;;;;;;;6.38;3.33;;;;;;;3.57;60.07;102486.81;4994932;28;20057;-66
2021/04/16 01:19:44;;;;;;;8.75;2.75;;;;;;;3.55;60.38;102488.44;4995011;28;20097;-66
2021/04/16 01:22:17;;;;;;;7.72;3.15;;;;;;;3.55;59.79;102486.78;4995081;28;20401;-66
2021/04/16 01:24:44;;;;;;;7.80;2.65;;;;;;;3.59;60.45;102482.63;5008583;28;20046;-66
2021/04/16 01:27:12;;;;;;;5.60;2.88;;;;;;;3.58;60.66;102488.56;5022065;28;20057;-66
2021/04/16 01:29:43;;;;;;;8.30;3.10;;;;;;;3.51;60.65;102484.03;5023789;28;20079;-67
2021/04/16 01:32:11;;;;;;;12.75;2.97;;;;;;;3.44;60.93;102480.34;4995037;28;20050;-66
2021/04/16 01:34:37;;;;;;;6.68;3.03;;;;;;;3.49;61.14;102477.94;5008207;28;20049;-67
2021/04/16 01:37:03;;;;;;;5.60;2.70;;;;;;;3.59;60.79;102480.03;5022642;28;20049;-66
2021/04/16 01:39:31;;;;;;;6.20;2.40;;;;;;;3.58;61.26;102483.44;5011057;28;20068;-66
2021/04/16 01:41:59;;;;;;;5.57;2.70;;;;;;;3.54;61.13;102479.00;5014537;28;20511;-66
2021/04/16 01:44:29;;;;;;;7.97;3.60;;;;;;;3.57;61.14;102481.66;5013254;28;20054;-65
2021/04/16 01:46:57;;;;;;;6.40;2.75;;;;;;;3.58;61.21;102489.47;5009199;28;20420;-67
2021/04/16 01:49:25;;;;;;;7.57;3.53;;;;;;;3.50;62.17;102482.25;5025475;28;20045;-66
2021/04/16 01:51:52;;;;;;;8.02;3.35;;;;;;;3.53;61.85;102475.53;5019606;28;20077;-67
2021/04/16 01:54:23;;;;;;;5.95;3.17;;;;;;;3.52;61.92;102473.78;5014106;28;20092;-66
2021/04/16 01:56:52;;;;;;;7.15;2.85;;;;;;;3.46;62.02;102477.81;5020717;28;20045;-65
2021/04/16 01:59:22;;;;;;;7.47;2.80;;;;;;;3.59;61.96;102485.19;5033122;28;20045;-66
2021/04/16 02:01:48;;;;;;;6.95;3.17;;;;;;;3.61;61.88;102473.25;5014023;28;20109;-65
2021/04/16 02:04:15;;;;;;;6.90;3.38;;;;;;;3.60;61.52;102474.06;5021092;28;20503;-66
2021/04/16 02:06:41;;;;;;;9.23;3.17;;;;;;;3.55;62.02;102476.47;5015769;28;20512;-65
2021/04/16 02:09:16;;;;;;;8.05;3.10;;;;;;;3.61;61.68;102482.66;5001803;28;20116;-65
2021/04/16 02:11:43;;;;;;;8.35;3.47;;;;;;;3.59;61.57;102474.91;5015891;28;20057;-65
2021/04/16 02:14:10;;;;;;;6.95;3.38;;;;;;;3.61;61.96;102475.84;5021418;28;20046;-65
2021/04/16 02:16:37;;;;;;;6.45;2.97;;;;;;;3.59;62.40;102477.47;5015751;28;20053;-66
2021/04/16 02:19:04;;;;;;;8.02;3.20;;;;;;;3.57;62.32;102481.66;5004799;28;20053;-65
2021/04/16 02:21:30;;;;;;;7.05;3.15;;;;;;;3.56;62.61;102479.91;4995989;28;20523;-65
2021/04/16 02:30:40;;;;;;;7.00;2.85;;;;;;;3.53;63.24;102474.66;5010651;28;20072;-66
2021/04/16 02:33:07;;;;;;;6.22;2.97;;;;;;;3.46;63.39;102480.38;5017429;28;20074;-66
2021/04/16 02:35:32;;;;;;;6.50;2.72;;;;;;;3.39;63.92;102481.88;5008105;28;20107;-66
2021/04/16 02:37:59;;;;;;;7.43;3.58;;;;;;;3.35;64.02;102480.84;4995614;28;20496;-66
2021/04/16 02:40:27;;;;;;;9.30;3.10;;;;;;;3.40;63.99;102483.59;5009668;28;20046;-66
2021/04/16 02:42:53;;;;;;;5.80;3.33;;;;;;;3.37;63.85;102479.22;5024623;28;20052;-66
2021/04/16 02:45:22;;;;;;;9.80;3.35;;;;;;;3.38;64.33;102477.53;5012701;28;20038;-66
2021/04/16 02:47:48;;;;;;;7.47;3.05;;;;;;;3.36;64.23;102480.03;5002358;28;20050;-66
2021/04/16 02:50:18;;;;;;;7.53;3.55;;;;;;;3.43;64.03;102478.56;5004964;28;20045;-66
2021/04/16 02:52:46;;;;;;;7.65;3.15;;;;;;;3.46;64.15;102477.81;5009336;28;20057;-65
2021/04/16 02:55:13;;;;;;;9.57;3.35;;;;;;;3.44;64.49;102479.47;5023474;28;20042;-65
2021/04/16 02:57:40;;;;;;;8.27;3.30;;;;;;;3.42;64.56;102476.81;5003458;28;20113;-65
2021/04/16 03:03:27;;;;;;;8.68;3.47;;;;;;;3.35;64.79;102479.97;5010904;28;20044;-66
2021/04/16 03:05:54;;;;;;;7.60;3.55;;;;;;;3.35;65.21;102469.69;4996183;28;20408;-64
2021/04/16 03:08:21;;;;;;;8.25;3.22;;;;;;;3.39;65.08;102475.00;5007334;28;20049;-65
2021/04/16 03:10:49;;;;;;;11.18;3.28;;;;;;;3.41;65.07;102467.34;5015849;28;20243;-66
2021/04/16 03:13:15;;;;;;;7.88;3.47;;;;;;;3.45;65.13;102473.47;5020245;28;20130;-66
2021/04/16 03:15:41;;;;;;;6.60;3.15;;;;;;;3.45;65.04;102476.03;5023156;28;20081;-66
2021/04/16 03:18:07;;;;;;;10.27;3.03;;;;;;;3.38;65.34;102478.41;5011461;28;20136;-66
2021/04/16 03:20:33;;;;;;;7.03;3.40;;;;;;;3.41;65.20;102473.38;5035348;28;20069;-66
2021/04/16 03:22:59;;;;;;;8.75;3.55;;;;;;;3.46;64.71;102472.66;5022551;28;20418;-66
2021/04/16 03:25:25;;;;;;;9.45;3.63;;;;;;;3.45;65.32;102476.03;5008507;28;20050;-65
2021/04/16 03:27:51;;;;;;;9.05;3.28;;;;;;;3.34;65.52;102473.06;5032590;28;20049;-66
2021/04/16 03:30:21;;;;;;;13.13;4.47;;;;;;;3.29;65.36;102472.91;5015483;28;20054;-65
2021/04/16 03:32:47;;;;;;;8.38;3.30;;;;;;;3.26;66.06;102472.78;5035444;22;20045;-65
2021/04/16 03:35:14;;;;;;;10.60;4.25;;;;;;;3.22;65.87;102464.06;5018027;28;20052;-64
2021/04/16 03:37:40;;;;;;;10.38;4.00;;;;;;;3.23;66.05;102472.66;5030027;28;20053;-65
2021/04/16 03:40:10;;;;;;;7.78;3.80;;;;;;;3.17;66.28;102464.69;5045252;28;20045;-64
2021/04/16 03:42:36;;;;;;;7.95;3.30;;;;;;;3.19;66.08;102468.22;5033060;28;20108;-64
2021/04/16 03:45:03;;;;;;;8.85;3.50;;;;;;;3.16;66.24;102462.94;5041524;28;20495;-64
2021/04/16 03:47:29;;;;;;;8.20;3.63;;;;;;;3.20;65.51;102460.53;5028359;28;20050;-64
2021/04/16 03:49:55;;;;;;;8.63;3.33;;;;;;;3.10;66.44;102467.03;5028883;28;20107;-65
2021/04/16 03:52:24;;;;;;;7.13;3.55;;;;;;;3.03;67.05;102477.91;5022285;28;20074;-64
2021/04/16 03:54:50;;;;;;;9.85;3.53;;;;;;;3.02;66.67;102475.25;5024520;28;20108;-65
2021/04/16 03:57:17;;;;;;;11.55;4.22;;;;;;;3.06;67.16;102478.00;5043370;28;20056;-64
2021/04/16 03:59:44;;;;;;;8.60;4.00;;;;;;;3.06;66.47;102483.13;5039729;28;20099;-65
2021/04/16 04:02:10;;;;;;;11.23;4.20;;;;;;;3.03;66.86;102483.03;5012359;28;20502;-65
2021/04/16 04:04:36;;;;;;;7.55;4.03;;;;;;;2.99;67.70;102490.56;5029322;28;20041;-65
2021/04/16 04:07:02;;;;;;;9.48;4.53;;;;;;;2.89;67.89;102485.06;5037717;28;20077;-65
2021/04/16 04:09:28;;;;;;;10.32;4.57;;;;;;;2.91;68.04;102480.84;5025600;28;20052;-64
2021/04/16 04:11:54;;;;;;;12.38;4.43;;;;;;;2.90;67.82;102481.63;5026817;28;20579;-65
2021/04/16 04:14:21;;;;;;;11.65;4.38;;;;;;;2.76;68.60;102485.34;5033138;28;20052;-64
2021/04/16 04:16:52;;;;;;;10.82;4.70;;;;;;;2.72;69.02;102480.88;5033462;28;20041;-64
2021/04/16 04:19:19;;;;;;;11.25;4.38;;;;;;;2.87;68.99;102486.69;5029671;28;20045;-64
2021/04/16 04:21:46;;;;;;;17.90;5.20;;;;;;;2.82;68.76;102489.88;5024640;28;20053;-65
2021/04/16 04:24:12;;;;;;;10.50;4.68;;;;;;;2.84;68.59;102475.41;5037626;28;20044;-66
2021/04/16 04:26:38;;;;;;;9.13;4.40;;;;;;;2.77;69.00;102481.97;5034974;28;20107;-65
2021/04/16 04:29:04;;;;;;;9.38;4.57;;;;;;;2.83;68.70;102489.94;5028878;28;20050;-65
2021/04/16 04:31:31;;;;;;;8.57;4.47;;;;;;;2.76;68.93;102485.34;5027323;28;20079;-64
2021/04/16 04:33:57;;;;;;;9.40;4.00;;;;;;;2.76;69.18;102491.38;5030982;28;20042;-65
2021/04/16 04:36:24;;;;;;;10.63;5.18;;;;;;;2.79;69.02;102488.06;5030663;28;20649;-65
2021/04/16 04:38:50;;;;;;;12.80;5.40;;;;;;;2.83;68.88;102494.19;5029786;28;20049;-66
2021/04/16 04:41:16;;;;;;;11.75;4.32;;;;;;;2.86;69.21;102484.03;5026786;28;20056;-66
2021/04/16 04:43:42;;;;;;;12.00;4.95;;;;;;;2.84;68.65;102485.69;5040011;28;20053;-65
2021/04/16 04:46:08;;;;;;;8.45;4.45;;;;;;;2.86;69.20;102479.78;5027735;28;20498;-64
2021/04/16 04:48:35;;;;;;;11.60;4.68;;;;;;;2.79;69.23;102480.34;5031661;28;20451;-65
2021/04/16 04:51:02;;;;;;;12.45;4.75;;;;;;;2.66;69.67;102481.50;5031091;28;20049;-65
2021/04/16 04:53:28;;;;;;;11.02;4.80;;;;;;;2.77;69.73;102484.53;5028227;28;20049;-64
2021/04/16 04:55:54;;;;;;;9.38;4.00;;;;;;;2.85;68.77;102475.44;5030442;28;20073;-65
2021/04/16 04:58:20;;;;;;;11.45;5.20;;;;;;;2.82;68.82;102472.75;5032201;28;20588;-65
2021/04/16 05:00:46;;;;;;;12.05;5.25;;;;;;;2.86;68.94;102481.47;5030512;28;20046;-65
2021/04/16 05:03:12;;;;;;;8.00;4.05;;;;;;;2.83;68.84;102489.06;5036510;28;20045;-65
2021/04/16 05:05:38;;;;;;;7.75;4.15;;;;;;;2.76;69.38;102498.22;5029122;28;20056;-65
2021/04/16 05:08:05;;;;;;;7.28;4.13;;;;;;;2.84;69.55;102494.25;5032349;28;20617;-64
2021/04/16 05:10:31;;;;;;;7.97;4.30;;;;;;;2.86;69.48;102494.31;5025941;28;20435;-65
2021/04/16 05:12:57;;;;;;;24.85;5.38;;;;;;;2.73;69.17;102491.25;5024061;28;20141;-65
2021/04/16 05:15:24;;;;;;;7.43;4.47;;;;;;;2.77;69.20;102495.69;5030686;28;20049;-65
2021/04/16 05:17:50;;;;;;;8.30;3.67;;;;;;;2.87;69.17;102496.97;5032423;28;20532;-65
2021/04/16 05:20:17;;;;;;;9.68;5.32;;;;;;;2.86;69.26;102499.44;5029603;28;20045;-65
2021/04/16 05:22:44;;;;;;;9.75;4.32;;;;;;;2.84;69.28;102507.09;5033971;28;20049;-65
2021/04/16 05:25:10;;;;;;;13.55;4.80;;;;;;;2.95;69.32;102499.81;5023270;28;20052;-65
2021/04/16 05:27:36;;;;;;;8.82;4.15;;;;;;;3.00;68.86;102494.88;5030022;28;20561;-66
2021/04/16 05:30:03;;;;;;;10.15;4.18;;;;;;;3.03;68.60;102497.56;5029348;28;20049;-65
2021/04/16 05:32:29;;;;;;;13.43;4.32;;;;;;;3.01;68.86;102496.63;5027307;28;20061;-65
2021/04/16 05:34:55;;;;;;;10.98;4.70;;;;;;;3.15;69.01;102495.50;5032664;28;20099;-65
2021/04/16 05:37:21;;;;;;;8.52;4.10;;;;;;;3.09;68.64;102496.13;5036173;28;20053;-65
2021/04/16 05:39:50;;;;;;;10.35;4.72;;;;;;;3.17;68.56;102495.56;5030198;28;20050;-65
2021/04/16 05:42:16;;;;;;;9.73;5.28;;;;;;;3.28;68.44;102493.44;5026660;28;20045;-65
2021/04/16 05:44:42;;;;;;;9.65;4.68;;;;;;;3.33;68.18;102492.78;5035585;28;20049;-65
2021/04/16 05:47:08;;;;;;;7.25;4.35;;;;;;;3.38;67.83;102498.13;5026061;28;20526;-65
2021/04/16 05:49:34;;;;;;;10.32;4.32;;;;;;;3.36;68.43;102502.31;5032999;28;20360;-66
2021/04/16 05:52:00;;;;;;;9.68;4.63;;;;;;;3.41;68.15;102499.09;5041345;28;20084;-65
2021/04/16 05:54:26;;;;;;;8.90;5.05;;;;;;;3.47;67.95;102498.47;5035636;28;20100;-65
2021/04/16 05:56:53;;;;;;;12.68;4.50;;;;;;;3.45;67.85;102501.78;5029100;28;20073;-66
2021/04/16 05:59:19;;;;;;;10.57;4.15;;;;;;;3.42;67.76;102498.28;5031626;28;20061;-65
2021/04/16 06:01:45;;;;;;;6.88;3.72;;;;;;;3.48;67.72;102492.50;5035972;28;20120;-65
2021/04/16 06:04:17;;;;;;;14.63;4.28;;;;;;;3.40;67.97;102499.91;5029302;28;20045;-65
2021/04/16 06:06:43;;;;;;;14.88;4.35;;;;;;;3.44;68.30;102498.34;5034249;28;20041;-65
2021/04/16 06:09:09;;;;;;;8.88;4.70;;;;;;;3.57;67.18;102502.25;5028733;28;20109;-65
2021/04/16 06:11:35;;;;;;;11.25;4.72;;;;;;;3.54;67.88;102491.88;5031835;28;20056;-65
2021/04/16 06:14:02;;;;;;;14.27;5.15;;;;;;;3.69;67.44;102500.16;5033419;28;20132;-65
2021/04/16 06:16:28;;;;;;;13.57;4.88;;;;;;;3.82;67.19;102503.19;5024580;28;20069;-65
2021/04/16 06:18:54;;;;;;;14.73;4.70;;;;;;;4.00;66.27;102496.16;5023304;28;20085;-66
2021/04/16 06:21:20;;;;;;;11.82;4.50;;;;;;;4.20;66.05;102501.13;5033392;28;20046;-65
2021/04/16 06:23:46;;;;;;;8.27;4.03;;;;;;;4.39;64.42;102497.53;5030739;28;20077;-66
2021/04/16 06:26:13;;;;;;;15.25;5.47;;;;;;;4.53;64.21;102498.00;5033282;28;20419;-67
2021/04/16 06:28:39;;;;;;;9.32;4.38;;;;;;;4.71;64.13;102494.28;5031184;28;20049;-65
2021/04/16 06:31:06;;;;;;;9.32;4.65;;;;;;;4.78;63.61;102496.22;5032060;28;20049;-66
2021/04/16 06:33:34;;;;;;;10.07;4.15;;;;;;;4.76;64.00;102498.78;5032464;28;20434;-65
2021/04/16 06:36:03;;;;;;;10.13;5.20;;;;;;;4.75;63.75;102490.97;5031755;28;20042;-65
2021/04/16 06:38:34;;;;;;;8.98;4.43;;;;;;;4.76;63.93;102493.63;5026571;28;20041;-65
2021/04/16 06:44:25;;;;;;;12.77;4.63;;;;;;;4.85;63.13;102485.28;5016801;28;20099;-66
2021/04/16 06:46:55;;;;;;;10.98;4.22;;;;;;;4.81;63.19;102486.03;5030980;28;20095;-65
2021/04/16 06:49:25;;;;;;;11.30;4.55;;;;;;;4.79;63.29;102483.38;5029107;28;20050;-66
2021/04/16 06:52:01;;;;;;;13.00;4.90;;;;;;;4.93;64.24;102481.28;5034869;28;20507;-66
2021/04/16 06:54:37;;;;;;;9.57;4.00;;;;;;;5.04;63.16;102491.06;5029766;28;20077;-67
2021/04/16 06:57:14;;;;;;;11.18;4.55;;;;;;;4.95;63.33;102495.06;5034657;28;20054;-66
2021/04/16 06:59:40;;;;;;;12.20;4.80;;;;;;;4.97;63.44;102496.00;5024333;28;20060;-62
2021/04/16 07:02:11;;;;;;;10.77;4.57;;;;;;;4.94;63.63;102493.31;5040852;28;20099;-66
2021/04/16 07:04:42;;;;;;;13.57;4.60;;;;;;;5.05;63.02;102497.94;5031056;28;20054;-64
2021/04/16 07:07:16;;;;;;;8.70;3.85;;;;;;;5.09;63.79;102495.53;5030297;28;20067;-66
2021/04/16 07:09:46;;;;;;;10.40;4.65;;;;;;;5.21;63.19;102492.47;5034221;28;20080;-66
2021/04/16 07:12:15;;;;;;;19.75;6.03;;;;;;;5.25;62.67;102494.31;5030171;28;20068;-65
2021/04/16 07:18:05;;;;;;;10.25;4.28;;;;;;;5.02;63.54;102488.41;5020355;28;20158;-65
2021/04/16 07:20:31;;;;;;;17.42;4.63;;;;;;;5.10;63.63;102496.41;5034256;28;20053;-66
2021/04/16 07:22:58;;;;;;;11.13;4.80;;;;;;;5.06;63.50;102497.13;5032146;28;20507;-65
2021/04/16 07:25:34;;;;;;;10.93;4.68;;;;;;;5.16;63.06;102503.47;5032763;28;20041;-66
2021/04/16 07:28:02;;;;;;;10.43;4.65;;;;;;;5.18;62.35;102507.84;5025534;28;20095;-66
2021/04/16 07:30:32;;;;;;;16.45;4.75;;;;;;;5.22;62.36;102501.06;5026104;28;20080;-66
2021/04/16 07:32:59;;;;;;;11.65;4.38;;;;;;;5.31;62.50;102505.66;5024615;28;20053;-65
2021/04/16 07:35:29;;;;;;;11.95;4.57;;;;;;;5.43;62.67;102503.47;5024075;28;20542;-66
2021/04/16 07:38:10;;;;;;;11.50;4.93;;;;;;;5.37;61.35;102500.69;5029802;28;20081;-66
2021/04/16 07:40:40;;;;;;;9.23;4.18;;;;;;;5.50;60.98;102499.34;5031902;28;20060;-65
2021/04/16 07:43:07;;;;;;;12.43;4.60;;;;;;;5.49;60.75;102501.06;5026599;28;20045;-66
2021/04/16 07:45:37;;;;;;;11.15;4.13;;;;;;;5.52;59.80;102503.75;5032908;28;20425;-66
2021/04/16 07:48:30;;;;;;;8.48;3.60;;;;;;;5.61;58.43;102497.97;5029600;28;20049;-62
2021/04/16 07:50:59;;;;;;;12.27;4.70;;;;;;;5.84;59.44;102496.03;5031738;28;20466;-66
2021/04/16 07:53:27;;;;;;;9.65;4.38;;;;;;;5.91;59.34;102504.84;5031814;28;20069;-66
2021/04/16 07:56:05;;;;;;;9.70;4.47;;;;;;;6.01;58.55;102493.97;5031500;28;20045;-66
2021/04/16 07:58:32;;;;;;;10.55;4.65;;;;;;;6.07;58.78;102494.19;5025177;28;20511;-66
2021/04/16 08:01:10;;;;;;;12.02;4.50;;;;;;;6.17;59.18;102497.00;5025693;28;20049;-65
2021/04/16 08:03:45;;;;;;;10.63;4.85;;;;;;;6.25;57.66;102487.75;5023149;28;20106;-66
2021/04/16 08:06:26;;;;;;;12.10;4.88;;;;;;;6.36;57.50;102491.50;5030934;28;20089;-67
2021/04/16 08:08:52;;;;;;;13.60;5.25;;;;;;;6.33;57.71;102490.56;5025264;28;20103;-68
2021/04/16 08:11:21;;;;;;;8.68;4.20;;;;;;;6.40;56.30;102487.28;5027892;28;20049;-66
2021/04/16 08:14:19;;;;;;;8.35;4.18;;;;;;;6.41;55.26;102481.28;5018981;28;20072;-67
2021/04/16 08:16:55;;;;;;;8.25;3.95;;;;;;;6.49;55.11;102486.63;5017347;28;20094;-64
2021/04/16 08:19:28;;;;;;;11.20;4.80;;;;;;;6.54;56.61;102482.47;5028532;28;20053;-66
2021/04/16 08:22:00;;;;;;;12.10;4.68;;;;;;;6.64;55.99;102480.97;5031204;28;20045;-66
2021/04/16 08:24:42;;;;;;;8.88;3.83;;;;;;;6.64;55.48;102480.97;5030405;28;20067;-66
2021/04/16 08:27:20;;;;;;;8.57;4.13;;;;;;;6.66;55.77;102480.22;5026285;28;20124;-65
2021/04/16 08:29:49;;;;;;;11.32;3.45;;;;;;;6.84;55.33;102473.72;5029468;28;20049;-66
2021/04/16 08:32:27;;;;;;;6.57;3.53;;;;;;;6.96;54.92;102478.31;5026049;28;20045;-66
2021/04/16 08:34:59;;;;;;;9.90;3.65;;;;;;;6.93;50.30;102486.03;5029029;28;20483;-66
2021/04/16 08:37:31;;;;;;;6.70;2.60;;;;;;;6.89;49.63;102481.59;5026535;28;20451;-66
2021/04/16 08:39:57;;;;;;;9.27;3.50;;;;;;;6.98;51.24;102476.66;5032515;28;20466;-66
2021/04/16 08:42:26;;;;;;;8.07;3.90;;;;;;;7.06;51.40;102476.84;5026731;28;20062;-66
2021/04/16 08:44:54;;;;;;;8.18;3.35;;;;;;;6.98;51.42;102485.31;5034603;28;20099;-68
2021/04/16 08:47:24;;;;;;;8.15;3.85;;;;;;;7.07;51.53;102476.88;5025379;28;20065;-67
2021/04/16 08:49:52;;;;;;;11.48;3.85;;;;;;;7.05;51.95;102486.31;5030693;28;20080;-67
2021/04/16 08:52:25;;;;;;;6.47;2.92;;;;;;;7.00;49.95;102477.56;5028738;28;20673;-66
2021/04/16 08:55:35;;;;;;;8.25;3.13;;;;;;;7.19;49.85;102468.50;5026481;28;20498;-67
2021/04/16 09:08:25;;;;;;;7.43;3.40;;;;;;;7.45;50.75;102466.50;5023933;28;20060;-67
2021/04/16 09:10:59;;;;;;;;;;;;;;;7.53;50.12;102465.81;5028910;28;20151;-66
2021/04/16 09:13:56;;;;;;;6.07;3.45;;;;;;;7.54;51.37;102463.25;5026424;28;19921;-67
2021/04/16 09:16:44;;;;;;;7.90;2.85;;;;;;;7.54;50.35;102463.25;5023392;28;20112;-64
2021/04/16 09:25:54;;;;;;;6.22;2.75;;;;;;;7.42;49.11;102461.28;5028221;28;20043;-67
2021/04/16 09:38:58;;;;;;;6.28;3.00;;;;;;;8.25;46.14;102461.16;5022827;28;20072;-67
2021/04/16 09:41:35;;;;;;;5.22;2.47;;;;;;;8.28;43.86;102463.81;5020074;28;20116;-67
2021/04/16 09:44:48;;;;;;;6.13;2.58;;;;;;;8.27;44.54;102454.28;5034176;28;20529;-67
2021/04/16 09:47:49;;;;;;;7.38;2.50;;;;;;;8.48;44.29;102453.84;5009543;28;20633;-68
2021/04/16 09:50:38;;;;;;;6.50;2.42;;;;;;;8.60;43.55;102452.28;5029116;28;20519;-67
2021/04/16 09:53:17;;;;;;;5.95;2.08;;;;;;;8.65;43.34;102451.53;5026864;28;20095;-66
2021/04/16 09:56:15;;;;;;;5.40;2.47;;;;;;;8.69;42.89;102450.75;5029316;28;20414;-65
2021/04/16 10:02:31;;;;;;;7.15;2.20;;;;;;;8.77;43.32;102437.00;5019888;28;20084;-67
2021/04/16 10:05:02;;;;;;;6.63;1.80;;;;;;;8.77;41.97;102435.31;5031926;28;20084;-67
2021/04/16 10:07:36;;;;;;;5.82;1.63;;;;;;;8.96;39.95;102433.84;5024635;28;20056;-68
2021/04/16 10:10:06;;;;;;;3.87;1.80;;;;;;;8.97;40.57;102433.00;5030360;28;20144;-68
2021/04/16 12:39:00;;;;;;;6.40;1.90;;;;;;;10.67;35.92;102326.50;5025667;28;20060;-58
2021/04/16 12:41:28;;;;;;;6.90;2.10;;;;;;;10.84;37.27;102335.25;5026486;28;21451;-67
2021/04/16 12:43:55;;;;;;;7.55;2.10;;;;;;;11.07;35.37;102315.44;5039000;28;20152;-62
2021/04/16 12:46:23;;;;;;;6.88;1.73;;;;;;;11.12;35.35;102324.13;5030464;28;20056;-66
2021/04/16 12:48:49;;;;;;;4.15;1.48;;;;;;;11.04;34.04;102327.56;5038069;28;20052;-65
2021/04/16 12:51:17;;;;;;;3.67;1.70;;;;;;;10.86;34.18;102314.47;5038992;28;20052;-65
2021/04/16 12:53:43;;;;;;;6.32;2.38;;;;;;;10.83;34.33;102320.50;5033800;28;20515;-66
2021/04/16 12:56:15;;;;;;;3.60;1.70;;;;;;;10.87;34.72;102304.03;5034042;28;20077;-66
2021/04/16 12:58:44;;;;;;;3.65;1.45;;;;;;;10.98;34.58;102313.63;5034208;28;20050;-66
2021/04/16 13:01:17;;;;;;;5.32;1.73;;;;;;;10.92;34.59;102311.03;5032563;28;20521;-67
2021/04/16 13:03:43;;;;;;;5.57;1.92;;;;;;;10.80;33.66;102310.09;5033737;28;20049;-66
2021/04/16 13:06:23;;;;;;;4.43;1.50;;;;;;;10.81;34.77;102317.03;5037864;28;20043;-65
2021/04/16 13:08:49;;;;;;;5.10;1.60;;;;;;;10.81;33.81;102306.63;5040042;28;20476;-66
2021/04/16 13:11:16;;;;;;;3.65;1.60;;;;;;;10.99;34.14;102304.97;5033126;28;20396;-66
2021/04/16 13:13:41;;;;;;;5.43;1.67;;;;;;;10.90;33.31;102311.00;5034709;28;20341;-66
2021/04/16 13:16:09;;;;;;;3.30;1.30;;;;;;;10.89;34.07;102312.75;5027512;28;20049;-67
2021/04/16 13:18:38;;;;;;;3.53;1.48;;;;;;;10.78;34.24;102303.16;5033299;28;20096;-67
2021/04/16 13:21:05;;;;;;;4.97;2.10;;;;;;;10.77;33.87;102289.25;5029940;28;20072;-67
2021/04/16 13:23:32;;;;;;;5.07;1.50;;;;;;;10.85;34.09;102284.94;5060137;22;20075;-64
2021/04/16 13:25:58;;;;;;;3.97;1.55;;;;;;;11.06;35.06;102283.28;5021393;28;20517;-58
2021/04/16 13:31:48;;;;;;;6.47;1.92;;;;;;;11.60;34.01;102279.97;5020336;28;20052;-62
2021/04/16 13:37:37;;;;;;;3.75;1.60;;;;;;;11.29;33.63;102279.91;5020242;28;20116;-62
2021/04/16 13:40:05;;;;;;;5.82;1.55;;;;;;;11.29;33.92;102285.97;5027224;28;20065;-64
2021/04/16 13:42:31;;;;;;;9.48;1.88;;;;;;;11.29;33.50;102278.16;5024082;28;20057;-63
2021/04/16 13:44:57;;;;;;;5.45;1.70;;;;;;;11.32;33.23;102265.13;5027833;28;20511;-65
2021/04/16 13:47:27;;;;;;;4.00;1.50;;;;;;;11.47;33.97;102266.91;5026225;28;20037;-67
2021/04/16 13:49:56;;;;;;;4.72;1.40;;;;;;;11.67;33.04;102260.84;5024687;28;20053;-66
2021/04/16 13:52:22;;;;;;;4.03;2.00;;;;;;;11.85;32.74;102266.94;5026349;28;20060;-60
2021/04/16 13:54:48;;;;;;;6.10;1.77;;;;;;;11.83;32.85;102259.13;5029393;28;20057;-66
2021/04/16 13:57:17;;;;;;;7.20;1.98;;;;;;;11.93;32.49;102258.25;5026098;28;20042;-66
2021/04/16 13:59:44;;;;;;;4.88;1.83;;;;;;;12.01;31.83;102260.91;5027368;28;20564;-65
2021/04/16 14:02:11;;;;;;;7.13;1.90;;;;;;;12.13;33.24;102249.56;5027970;28;20041;-63
2021/04/16 14:04:40;;;;;;;6.75;1.67;;;;;;;11.79;32.60;102244.34;5028779;28;20057;-65
2021/04/16 14:07:07;;;;;;;5.25;1.80;;;;;;;11.50;33.04;102248.69;5028070;28;20070;-65
2021/04/16 14:09:34;;;;;;;4.68;1.65;;;;;;;11.44;33.81;102258.22;5027401;28;20048;-65
2021/04/16 14:12:01;;;;;;;4.85;1.60;;;;;;;11.50;33.20;102258.22;5029368;28;20045;-62
2021/04/16 14:14:29;;;;;;;5.75;1.67;;;;;;;11.69;33.24;102250.41;5019990;28;20065;-65
2021/04/16 14:16:59;;;;;;;5.35;1.90;;;;;;;11.68;32.99;102249.56;5027019;28;20053;-65
2021/04/16 14:19:29;;;;;;;4.43;2.25;;;;;;;11.56;34.04;102246.94;5020556;28;20083;-65
2021/04/16 14:21:57;;;;;;;4.55;1.95;;;;;;;11.68;33.21;102248.69;5021159;28;20042;-63
2021/04/16 14:24:24;;;;;;;5.57;2.03;;;;;;;11.86;32.93;102238.28;5026895;28;20104;-65
2021/04/16 14:26:53;;;;;;;6.45;2.58;;;;;;;11.96;32.68;102244.34;5024505;28;20050;-64
2021/04/16 14:29:19;;;;;;;4.20;2.10;;;;;;;11.74;33.05;102241.72;5026864;28;20045;-64
2021/04/16 14:31:46;;;;;;;7.72;2.10;;;;;;;11.90;32.59;102229.56;5023889;28;20145;-64
2021/04/16 14:34:15;;;;;;;6.43;1.73;;;;;;;11.87;32.31;102226.97;5025548;28;20057;-62
2021/04/16 14:36:42;;;;;;;5.20;1.98;;;;;;;11.85;33.01;102228.72;5019428;28;20049;-63
2021/04/16 14:39:08;;;;;;;7.72;2.30;;;;;;;11.92;32.16;102227.81;5025516;28;20046;-65
2021/04/16 14:41:36;;;;;;;4.00;1.80;;;;;;;12.19;32.70;102222.63;5025088;28;20470;-65
2021/04/16 14:44:02;;;;;;;7.03;1.75;;;;;;;12.34;32.38;102222.56;5012740;28;20479;-65
2021/04/16 14:46:28;;;;;;;4.43;1.80;;;;;;;12.02;31.79;102220.91;5014360;28;20060;-63
2021/04/16 14:48:58;;;;;;;5.22;2.17;;;;;;;11.92;32.30;102224.38;5018015;28;20046;-65
2021/04/16 14:51:27;;;;;;;6.78;1.77;;;;;;;11.91;32.44;102220.88;5019839;28;20053;-65
2021/04/16 14:54:34;;;;;;;3.72;1.55;;;;;;;11.82;32.06;102228.69;5018041;28;20152;-66
2021/04/16 14:57:01;;;;;;;3.92;1.75;;;;;;;11.69;32.36;102212.19;5019396;28;20041;-64
2021/04/16 14:59:32;;;;;;;6.03;2.40;;;;;;;11.81;32.58;102217.41;5023934;28;20046;-65
2021/04/16 15:01:58;;;;;;;5.88;2.78;;;;;;;11.99;33.00;102213.09;5022963;28;20458;-65
2021/04/16 15:04:25;;;;;;;5.18;2.45;;;;;;;12.10;34.21;102213.94;5023874;28;20538;-66
2021/04/16 15:06:54;;;;;;;5.00;2.10;;;;;;;11.97;33.36;102214.78;5021175;28;20048;-65